Arctic Village, AK

22:23 AKDT le 21 octobre 2014 (GMT -0800)
Arctic Village | Change Station
CLOSE
Current Station
Aéroport
Location: Arctic Village,
Altitude: 2090 ft
Stations météo à proximité

Alt. 2090 ft 68.11 °N, 145.58 °W | Updated 7 minutes ago

Partly Cloudy
Partiellement nuageux
21 ° F
Paraît 13 ° F
N
7
Vent Variable Vent de NE

Aujourd'hui
Haut(e) -- | Bas -- ° F
--% Risque de précip.
Hier
Haut(e) -- | Bas -- ° F
Precip. -- pouce
9:10 AM 5:41 PM
Lune descendante, 3% visible
Pression 29.59 pouce
Visibilité 4.0 Miles terrestres
Nuages Peu 2300 ft
Refroidissement éolien 13 ° F
Point de rosée 18 ° F
Humidité 86%
Précipitations 0.00 pouce
Profondeur de la couche neigeuse Non disponible.
UV 0 sur 12
Pollen Non disponible.
Qualité de l'air Non disponible.
Flu Activity Sporadic
METAR PARC 220616Z AUTO 04006KT 4SM FEW023 M06/M08 A2959 RMK AO1

More Conditions Fewer Conditions

Pression 29.59 pouce
Visibilité 4.0 Miles terrestres
Nuages Peu 2300 ft
Refroidissement éolien 13 ° F
Point de rosée 18 ° F
Humidité 86%
Précipitations 0.00 pouce
Profondeur de la couche neigeuse Non disponible.
UV 0 sur 12
Pollen Non disponible.
Qualité de l'air Non disponible.
Flu Activity Sporadic
METAR PARC 220616Z AUTO 04006KT 4SM FEW023 M06/M08 A2959 RMK AO1

More Conditions Fewer Conditions

10-Day Weather Forecast

Almanac

Astronomie

Oct. 21, 2014 Lever Coucher
Temps réel 09:10 AKDT 17:41 AKDT
Crépuscule civil 08:10 AKDT 18:41 AKDT
Crépuscule nautique 07:05 AKDT 19:46 AKDT
Crépuscule astronomique 06:00 AKDT 20:51 AKDT
Lune 06:07 AKDT (10/21) 17:25 AKDT (10/21)
Durée de lumière visible 10h 30m
Longueur du jour
8h 31m
Tomorrow will be 8m 8s shorter.
Lune descendante, 3% of the Moon is Illuminated
Oct 22
Lune descendante
Oct 23
Nouveau
Oct 30
Premier quartier
Nov 6
Pleine lune
Nov 14
Dernier quartier

Community

WunderPhotos

Upload Photos

1,763,885 Photos téléchargées !

Nearby

Qualité de l'air

Not available.

Épaisseur de neige

Station Depth Altitude
Atigun Pass 15 in 4800 ft
Imnaviat Creek 22 in 3050 ft
Fort Yukon 3 in 430 ft
Coldfoot 5 in 1040 ft
Gobblers Knob 1 in 2030 ft

Activité sismique

Ville Distance Mag. Time & Date
No recent earthquake activity has been reported nearby.
Minimum magnitude displayed is 2.5.

Températures des eaux côtières

Lieu Température
Aucun rapport de station

Stations météo à proximité